createdAt,value
2019-02-22T00:00:49.379Z,42.20
2019-02-22T00:03:19.830Z,42.33
2019-02-22T00:05:50.123Z,42.93
2019-02-22T00:08:22.030Z,44.33
2019-02-22T00:10:52.338Z,43.77
2019-02-22T00:13:22.896Z,43.23
2019-02-22T00:15:53.294Z,43.80
2019-02-22T00:18:23.580Z,43.50
2019-02-22T00:20:53.890Z,45.37
2019-02-22T00:23:24.204Z,45.47
2019-02-22T00:25:56.056Z,43.40
2019-02-22T00:28:26.347Z,45.37
2019-02-22T00:30:56.590Z,45.90
2019-02-22T00:33:29.129Z,45.67
2019-02-22T00:35:59.668Z,44.70
2019-02-22T00:38:31.625Z,45.20
2019-02-22T00:41:01.929Z,45.77
2019-02-22T00:43:32.235Z,44.97
2019-02-22T00:46:02.805Z,46.73
2019-02-22T00:48:34.080Z,46.63
2019-02-22T00:51:05.404Z,43.40
2019-02-22T00:53:35.771Z,46.23
2019-02-22T00:56:06.259Z,44.70
2019-02-22T00:58:39.387Z,45.00
2019-02-22T01:01:10.683Z,41.90
2019-02-22T01:03:41.006Z,43.87
2019-02-22T01:06:11.346Z,43.23
2019-02-22T01:08:41.617Z,41.40
2019-02-22T01:11:11.970Z,43.63
2019-02-22T01:13:42.231Z,42.63
2019-02-22T01:16:14.096Z,43.53
2019-02-22T01:18:44.486Z,44.27
2019-02-22T01:21:14.769Z,44.40
2019-02-22T01:23:45.102Z,46.87
2019-02-22T01:26:15.392Z,47.67
2019-02-22T01:28:46.281Z,45.10
2019-02-22T01:31:16.604Z,48.17
2019-02-22T01:33:46.963Z,48.33
2019-02-22T01:36:17.219Z,49.73
2019-02-22T01:38:47.457Z,51.50
2019-02-22T01:41:19.348Z,49.90
2019-02-22T01:43:49.683Z,52.50
2019-02-22T01:46:19.933Z,50.73
2019-02-22T01:48:50.330Z,50.47
2019-02-22T01:51:20.791Z,51.33
2019-02-22T01:53:53.862Z,50.77
2019-02-22T01:56:23.756Z,53.07
2019-02-22T01:58:54.052Z,51.37
2019-02-22T02:01:24.797Z,52.77
2019-02-22T02:03:55.131Z,53.57
2019-02-22T02:06:25.768Z,51.77
2019-02-22T02:08:56.007Z,52.83
2019-02-22T02:11:26.487Z,51.60
2019-02-22T02:13:56.922Z,51.80
2019-02-22T02:16:30.362Z,50.07
2019-02-22T02:19:00.761Z,48.53
2019-02-22T02:21:31.038Z,48.90
2019-02-22T02:24:01.264Z,48.93
2019-02-22T02:26:31.631Z,48.20
2019-02-22T02:29:02.080Z,49.00
2019-02-22T02:31:32.316Z,46.97
2019-02-22T02:34:02.605Z,49.67
2019-02-22T02:36:33.088Z,50.60
2019-02-22T02:39:04.037Z,49.13
2019-02-22T02:41:36.102Z,49.40
2019-02-22T02:44:06.320Z,48.40
2019-02-22T02:46:36.571Z,48.57
2019-02-22T02:49:06.795Z,48.73
2019-02-22T02:51:37.283Z,50.33
2019-02-22T02:54:07.618Z,50.70
2019-02-22T02:56:37.907Z,50.33
2019-02-22T02:59:08.153Z,49.83
2019-02-22T03:01:38.435Z,51.20
2019-02-22T03:04:08.674Z,48.77
2019-02-22T03:06:44.376Z,49.17
2019-02-22T03:09:14.704Z,49.57
2019-02-22T03:11:44.959Z,50.40
2019-02-22T03:14:15.215Z,49.83
2019-02-22T03:16:45.527Z,50.00
2019-02-22T03:19:15.832Z,49.27
2019-02-22T03:21:46.118Z,51.50
2019-02-22T03:24:17.044Z,50.37
2019-02-22T03:26:47.305Z,50.97
2019-02-22T03:29:17.527Z,50.83
2019-02-22T03:31:47.814Z,50.47
2019-02-22T03:34:18.085Z,51.60
2019-02-22T03:36:48.350Z,51.80
2019-02-22T03:39:18.617Z,50.93
2019-02-22T03:41:49.120Z,49.73
2019-02-22T03:44:22.554Z,53.40
2019-02-22T03:46:52.958Z,50.50
2019-02-22T03:49:23.256Z,50.47
2019-02-22T03:51:53.532Z,51.93
2019-02-22T03:54:23.839Z,51.33
2019-02-22T03:56:54.290Z,50.63
2019-02-22T03:59:24.664Z,51.20
2019-02-22T04:01:54.901Z,48.60
2019-02-22T04:04:25.156Z,51.70
2019-02-22T04:06:56.388Z,51.37
2019-02-22T04:09:26.842Z,50.87
2019-02-22T04:11:57.257Z,50.30
2019-02-22T04:14:27.527Z,50.43
2019-02-22T04:16:57.749Z,50.30
2019-02-22T04:19:28.048Z,49.67
2019-02-22T04:21:58.243Z,50.13
2019-02-22T04:24:28.615Z,51.00
2019-02-22T04:26:58.882Z,49.83
2019-02-22T04:29:30.768Z,49.03
2019-02-22T04:32:00.993Z,49.57
2019-02-22T04:34:31.295Z,49.87
2019-02-22T04:37:01.714Z,48.77
2019-02-22T04:39:32.112Z,48.33
2019-02-22T04:42:02.370Z,48.23
2019-02-22T04:44:32.665Z,48.10
2019-02-22T04:47:03.970Z,48.17
2019-02-22T04:49:34.362Z,46.40
2019-02-22T04:52:04.613Z,48.03
2019-02-22T04:54:34.942Z,47.20
2019-02-22T04:57:05.210Z,47.20
2019-02-22T04:59:37.124Z,45.53
2019-02-22T05:02:07.343Z,45.23
2019-02-22T05:04:37.689Z,47.33
2019-02-22T05:07:07.953Z,46.17
2019-02-22T05:09:38.188Z,46.33
2019-02-22T05:12:11.054Z,47.00
2019-02-22T05:14:40.408Z,47.77
2019-02-22T05:17:10.924Z,46.13
2019-02-22T05:19:41.240Z,44.20
2019-02-22T05:22:11.783Z,46.40
2019-02-22T05:24:42.771Z,44.70
2019-02-22T05:27:13.060Z,45.17
2019-02-22T05:29:44.570Z,44.53
2019-02-22T05:32:14.874Z,44.13
2019-02-22T05:34:45.687Z,44.73
2019-02-22T05:37:15.969Z,43.53
2019-02-22T05:39:46.899Z,42.93
2019-02-22T05:42:22.777Z,42.97
2019-02-22T05:44:49.119Z,42.40
2019-02-22T05:47:19.413Z,41.93
2019-02-22T05:49:49.752Z,43.30
2019-02-22T05:52:20.218Z,42.70
2019-02-22T05:54:50.602Z,41.77
2019-02-22T05:57:20.894Z,41.47
2019-02-22T05:59:51.197Z,42.40
2019-02-22T06:02:21.488Z,41.50
2019-02-22T06:04:51.915Z,42.10
2019-02-22T06:07:22.351Z,44.97
2019-02-22T06:09:52.559Z,44.80
2019-02-22T06:12:33.840Z,45.87
2019-02-22T06:14:54.961Z,44.80
2019-02-22T06:17:25.247Z,46.60
2019-02-22T06:19:55.494Z,46.93
2019-02-22T06:22:29.628Z,46.53
2019-02-22T06:24:57.797Z,47.50
2019-02-22T06:27:28.075Z,48.33
2019-02-22T06:29:58.442Z,47.30
2019-02-22T06:32:28.877Z,47.77
2019-02-22T06:34:59.140Z,47.73
2019-02-22T06:37:29.508Z,48.90
2019-02-22T06:39:59.821Z,48.87
2019-02-22T06:42:30.097Z,48.47
2019-02-22T06:45:00.664Z,48.27
2019-02-22T06:47:30.906Z,48.50
2019-02-22T06:50:01.190Z,52.47
2019-02-22T06:52:31.637Z,50.70
2019-02-22T06:55:04.455Z,51.10
2019-02-22T06:57:34.740Z,50.60
2019-02-22T07:00:05.287Z,52.97
2019-02-22T07:02:36.018Z,53.47
2019-02-22T07:05:06.545Z,50.97
2019-02-22T07:07:36.836Z,53.73
2019-02-22T07:10:09.603Z,54.50
2019-02-22T07:12:44.641Z,56.40
2019-02-22T07:15:16.061Z,55.77
2019-02-22T07:17:46.490Z,55.13
2019-02-22T07:20:16.787Z,53.97
2019-02-22T07:22:47.238Z,52.30
2019-02-22T07:25:17.534Z,54.80
2019-02-22T07:27:47.987Z,55.83
2019-02-22T07:30:18.300Z,55.57
2019-02-22T07:32:48.598Z,54.10
2019-02-22T07:35:18.921Z,53.93
2019-02-22T07:37:49.384Z,54.13
2019-02-22T07:40:20.102Z,54.87
2019-02-22T07:42:50.493Z,54.00
2019-02-22T07:45:20.838Z,51.23
2019-02-22T07:47:51.111Z,51.47
2019-02-22T07:50:21.436Z,51.53
2019-02-22T07:52:53.374Z,51.97
2019-02-22T07:55:23.700Z,50.13
2019-02-22T07:57:54.008Z,49.80
2019-02-22T08:00:24.302Z,49.77
2019-02-22T08:02:54.597Z,51.60
2019-02-22T08:05:25.217Z,50.60
2019-02-22T08:07:55.539Z,50.53
2019-02-22T08:10:26.353Z,51.47
2019-02-22T08:12:56.931Z,53.33
2019-02-22T08:15:27.140Z,53.93
2019-02-22T08:17:57.837Z,53.90
2019-02-22T08:20:28.104Z,53.00
2019-02-22T08:22:58.844Z,53.20
2019-02-22T08:25:29.330Z,52.50
2019-02-22T08:27:59.968Z,51.33
2019-02-22T08:30:31.887Z,52.20
2019-02-22T08:33:02.690Z,53.17
2019-02-22T08:35:33.064Z,53.40
2019-02-22T08:38:03.429Z,53.37
2019-02-22T08:40:33.705Z,53.33
2019-02-22T08:43:04.316Z,51.43
2019-02-22T08:45:34.707Z,52.93
2019-02-22T08:48:07.999Z,50.60
2019-02-22T08:50:38.248Z,51.60
2019-02-22T08:53:08.631Z,52.67
2019-02-22T08:55:38.938Z,52.23
2019-02-22T08:58:09.323Z,54.47
2019-02-22T09:00:41.596Z,53.80
2019-02-22T09:03:13.391Z,53.87
2019-02-22T09:05:43.737Z,55.17
2019-02-22T09:08:14.270Z,54.27
2019-02-22T09:10:44.521Z,55.17
2019-02-22T09:13:14.802Z,54.07
2019-02-22T09:15:45.170Z,52.60
2019-02-22T09:18:15.703Z,51.90
2019-02-22T09:20:46.270Z,47.03
2019-02-22T09:23:19.356Z,47.97
2019-02-22T09:25:49.592Z,47.40
2019-02-22T09:28:19.915Z,45.93
2019-02-22T09:30:50.313Z,47.80
2019-02-22T09:33:21.273Z,45.47
2019-02-22T09:35:51.702Z,47.87
2019-02-22T09:38:30.957Z,45.10
2019-02-22T09:41:03.032Z,45.00
2019-02-22T09:43:33.278Z,43.77
2019-02-22T09:46:03.527Z,46.40
2019-02-22T09:48:34.002Z,46.63
2019-02-22T09:51:04.579Z,42.93
2019-02-22T09:53:35.164Z,41.40
2019-02-22T09:56:05.644Z,41.93
2019-02-22T09:58:36.222Z,42.93
2019-02-22T10:01:06.663Z,40.33
2019-02-22T10:03:37.275Z,41.20
2019-02-22T10:06:07.637Z,42.43
2019-02-22T10:08:38.041Z,41.97
2019-02-22T10:11:08.332Z,45.30
2019-02-22T10:13:38.750Z,43.67
2019-02-22T10:16:10.840Z,45.20
2019-02-22T10:18:44.218Z,47.13
2019-02-22T10:21:15.575Z,43.63
2019-02-22T10:23:45.826Z,44.13
2019-02-22T10:26:16.207Z,43.80
2019-02-22T10:28:46.498Z,44.63
2019-02-22T10:31:16.821Z,39.63
2019-02-22T10:33:47.113Z,38.57
2019-02-22T10:36:17.603Z,37.00
2019-02-22T10:38:49.431Z,37.43
2019-02-22T10:41:19.823Z,37.00
2019-02-22T10:43:51.830Z,35.80
2019-02-22T10:46:22.552Z,36.60
2019-02-22T10:48:54.068Z,37.00
2019-02-22T10:51:24.368Z,38.27
2019-02-22T10:53:55.719Z,39.70
2019-02-22T10:56:28.236Z,37.37
2019-02-22T10:59:05.209Z,33.90
2019-02-22T11:01:37.831Z,35.10
2019-02-22T11:04:10.197Z,37.23
2019-02-22T11:06:40.676Z,32.00
2019-02-22T11:09:11.043Z,33.03
2019-02-22T11:11:41.242Z,32.37
2019-02-22T11:14:11.596Z,34.33
2019-02-22T11:16:41.910Z,32.53
2019-02-22T11:19:12.362Z,30.93
2019-02-22T11:21:45.383Z,30.70
2019-02-22T11:24:15.664Z,29.30
2019-02-22T11:26:45.983Z,30.10
2019-02-22T11:29:16.414Z,29.17
2019-02-22T11:31:47.041Z,29.53
2019-02-22T11:34:17.813Z,26.27
2019-02-22T11:36:48.222Z,23.00
2019-02-22T11:39:20.776Z,23.97
2019-02-22T11:41:51.350Z,22.60
2019-02-22T11:44:22.236Z,24.90
2019-02-22T11:46:52.487Z,24.00
2019-02-22T11:49:23.443Z,25.57
2019-02-22T11:51:55.914Z,20.70
2019-02-22T11:54:26.107Z,22.50
2019-02-22T11:56:56.499Z,23.23
2019-02-22T11:59:26.997Z,24.63
2019-02-22T12:01:58.522Z,24.73
2019-02-22T12:04:28.882Z,22.20
2019-02-22T12:06:59.355Z,21.90
2019-02-22T12:09:29.680Z,20.50
2019-02-22T12:12:00.071Z,21.27
2019-02-22T12:14:30.454Z,20.10
2019-02-22T12:17:01.047Z,19.57
2019-02-22T12:19:31.467Z,18.77
2019-02-22T12:22:01.955Z,18.20
2019-02-22T12:24:32.294Z,10.97
2019-02-22T12:27:02.625Z,10.40
2019-02-22T12:29:32.919Z,12.00
2019-02-22T12:32:03.195Z,11.57
2019-02-22T12:34:33.697Z,12.87
2019-02-22T12:37:04.159Z,15.90
2019-02-22T12:39:34.445Z,17.30
2019-02-22T12:42:04.911Z,17.13
2019-02-22T12:44:35.339Z,16.50
2019-02-22T12:47:05.658Z,16.63
2019-02-22T12:49:35.972Z,16.53
2019-02-22T12:52:06.449Z,16.40
2019-02-22T12:54:39.892Z,13.80
2019-02-22T12:57:10.433Z,14.07
2019-02-22T12:59:40.793Z,14.03
2019-02-22T13:02:11.369Z,14.97
2019-02-22T13:04:41.815Z,15.17
2019-02-22T13:07:12.238Z,14.37
2019-02-22T13:09:42.550Z,14.10
2019-02-22T13:12:14.219Z,13.00
2019-02-22T13:14:45.034Z,13.33
2019-02-22T13:17:15.573Z,14.30
2019-02-22T13:19:46.012Z,13.33
2019-02-22T13:22:16.502Z,12.93
2019-02-22T13:24:47.774Z,11.07
2019-02-22T13:27:18.128Z,12.07
2019-02-22T13:29:48.450Z,11.60
2019-02-22T13:32:21.743Z,10.90
2019-02-22T13:34:53.141Z,11.60
2019-02-22T13:37:25.412Z,10.33
2019-02-22T13:39:56.576Z,10.63
2019-02-22T13:42:26.910Z,9.90
2019-02-22T13:44:57.208Z,9.17
2019-02-22T13:47:27.562Z,9.80
2019-02-22T13:49:59.478Z,10.27
2019-02-22T13:52:30.604Z,8.97
2019-02-22T13:55:01.112Z,8.63
2019-02-22T13:57:32.993Z,7.90
2019-02-22T14:00:03.301Z,8.57
2019-02-22T14:02:36.161Z,8.87
2019-02-22T14:05:06.728Z,8.37
2019-02-22T14:07:37.754Z,9.03
2019-02-22T14:10:09.705Z,7.93
2019-02-22T14:12:40.323Z,7.83
2019-02-22T14:15:10.688Z,7.90
2019-02-22T14:17:45.639Z,7.73
2019-02-22T14:20:18.755Z,6.70
2019-02-22T14:22:50.131Z,7.33
2019-02-22T14:25:20.410Z,7.37
2019-02-22T14:27:50.785Z,7.03
2019-02-22T14:30:21.295Z,7.67
2019-02-22T14:32:54.685Z,7.00
2019-02-22T14:35:24.999Z,7.07
2019-02-22T14:37:55.357Z,7.47
2019-02-22T14:40:25.681Z,7.27
2019-02-22T14:42:57.567Z,6.50
2019-02-22T14:45:27.902Z,7.33
2019-02-22T14:47:58.360Z,6.20
2019-02-22T14:50:28.724Z,5.87
2019-02-22T14:52:59.029Z,5.83
2019-02-22T14:55:29.336Z,6.20
2019-02-22T14:57:59.838Z,5.73
2019-02-22T15:00:31.187Z,6.23
2019-02-22T15:03:01.634Z,6.10
2019-02-22T15:05:31.932Z,6.13
2019-02-22T15:08:05.998Z,6.47
2019-02-22T15:10:36.569Z,6.00
2019-02-22T15:13:07.108Z,6.57
2019-02-22T15:15:59.953Z,6.77
2019-02-22T15:18:21.850Z,7.10
2019-02-22T15:20:52.318Z,6.50
2019-02-22T15:23:22.712Z,6.70
2019-02-22T15:25:53.756Z,6.60
2019-02-22T15:28:26.367Z,5.87
2019-02-22T15:30:56.481Z,6.57
2019-02-22T15:33:28.310Z,6.73
2019-02-22T15:35:58.558Z,5.53
2019-02-22T15:38:34.605Z,6.17
2019-02-22T15:41:04.956Z,5.17
2019-02-22T15:43:35.283Z,5.63
2019-02-22T15:46:12.273Z,5.77
2019-02-22T15:48:38.915Z,5.20
2019-02-22T15:51:09.224Z,5.40
2019-02-22T15:53:43.969Z,5.20
2019-02-22T15:56:14.013Z,5.97
2019-02-22T15:58:44.339Z,5.20
2019-02-22T16:01:14.740Z,5.47
2019-02-22T16:03:56.275Z,5.13
2019-02-22T16:06:26.562Z,5.87
2019-02-22T16:08:57.090Z,6.27
2019-02-22T16:11:27.484Z,6.20
2019-02-22T16:14:00.786Z,6.60
2019-02-22T16:16:31.186Z,6.40
2019-02-22T16:19:01.529Z,6.20
2019-02-22T16:21:31.873Z,6.50
2019-02-22T16:24:02.128Z,6.80
2019-02-22T16:26:32.529Z,6.33
2019-02-22T16:29:03.749Z,6.63
2019-02-22T16:31:34.142Z,7.53
2019-02-22T16:34:04.531Z,7.70
2019-02-22T16:36:34.886Z,6.80
2019-02-22T16:39:06.308Z,6.60
2019-02-22T16:41:38.218Z,6.33
2019-02-22T16:44:08.530Z,7.83
2019-02-22T16:46:38.995Z,7.43
2019-02-22T16:49:09.399Z,8.50
2019-02-22T16:51:39.782Z,7.77
2019-02-22T16:54:10.092Z,7.40
2019-02-22T16:56:41.392Z,6.73
2019-02-22T16:59:11.665Z,7.07
2019-02-22T17:01:42.026Z,7.40
2019-02-22T17:04:12.330Z,6.93
2019-02-22T17:06:42.606Z,7.70
2019-02-22T17:09:12.984Z,8.90
2019-02-22T17:11:46.137Z,8.67
2019-02-22T17:14:16.465Z,8.20
2019-02-22T17:16:46.786Z,9.23
2019-02-22T17:19:17.026Z,9.77
2019-02-22T17:21:47.304Z,9.20
2019-02-22T17:24:18.556Z,9.20
2019-02-22T17:26:48.894Z,9.30
2019-02-22T17:29:19.271Z,8.37
2019-02-22T17:31:49.534Z,8.23
2019-02-22T17:34:19.781Z,8.53
2019-02-22T17:36:50.087Z,9.80
2019-02-22T17:39:20.412Z,10.17
2019-02-22T17:41:50.804Z,10.20
2019-02-22T17:44:21.023Z,9.50
2019-02-22T17:46:57.755Z,9.13
2019-02-22T17:49:23.336Z,8.87
2019-02-22T17:51:53.670Z,8.20
2019-02-22T17:54:23.944Z,9.40
2019-02-22T17:56:54.269Z,8.80
2019-02-22T17:59:24.775Z,9.60
2019-02-22T18:01:55.162Z,8.87
2019-02-22T18:04:25.476Z,9.43
2019-02-22T18:06:55.826Z,9.33
2019-02-22T18:09:27.148Z,10.03
2019-02-22T18:11:57.390Z,9.57
2019-02-22T18:14:27.904Z,9.63
2019-02-22T18:17:07.925Z,10.90
2019-02-22T18:19:32.001Z,10.50
2019-02-22T18:22:03.635Z,9.80
2019-02-22T18:24:34.103Z,10.83
2019-02-22T18:27:04.651Z,11.40
2019-02-22T18:29:35.840Z,11.50
2019-02-22T18:32:06.698Z,11.27
2019-02-22T18:34:38.099Z,11.73
2019-02-22T18:37:08.407Z,11.80
2019-02-22T18:39:39.713Z,11.60
2019-02-22T18:42:10.015Z,12.40
2019-02-22T18:44:40.393Z,10.90
2019-02-22T18:47:19.008Z,11.73
2019-02-22T18:49:42.743Z,10.87
2019-02-22T18:52:13.200Z,11.73
2019-02-22T18:54:46.086Z,10.77
2019-02-22T18:57:15.657Z,11.70
2019-02-22T18:59:46.007Z,12.77
2019-02-22T19:02:16.368Z,12.67
2019-02-22T19:04:48.505Z,12.17
2019-02-22T19:07:18.843Z,11.60
2019-02-22T19:09:49.203Z,11.67
2019-02-22T19:12:19.691Z,12.23
2019-02-22T19:14:50.199Z,11.00
2019-02-22T19:17:30.136Z,10.80
2019-02-22T19:19:52.718Z,11.13
2019-02-22T19:22:23.084Z,10.70
2019-02-22T19:24:54.980Z,10.93
2019-02-22T19:27:25.268Z,10.00
2019-02-22T19:29:55.633Z,10.27
2019-02-22T19:32:25.987Z,10.43
2019-02-22T19:34:56.230Z,9.90
2019-02-22T19:37:26.639Z,10.17
2019-02-22T19:39:56.957Z,10.07
2019-02-22T19:42:27.463Z,10.03
2019-02-22T19:44:57.802Z,10.30
2019-02-22T19:47:29.074Z,9.93
2019-02-22T19:49:59.357Z,10.23
2019-02-22T19:52:31.313Z,10.43
2019-02-22T19:55:01.579Z,9.90
2019-02-22T19:57:32.921Z,10.83
2019-02-22T20:00:03.952Z,11.00
2019-02-22T20:02:35.438Z,10.13
2019-02-22T20:05:06.250Z,9.60
2019-02-22T20:07:37.046Z,9.93
2019-02-22T20:10:17.419Z,9.33
2019-02-22T20:12:40.965Z,9.80
2019-02-22T20:15:14.295Z,9.37
2019-02-22T20:17:53.241Z,8.53
2019-02-22T20:20:17.191Z,8.70
2019-02-22T20:22:48.084Z,9.10
2019-02-22T20:25:18.345Z,7.20
2019-02-22T20:27:48.730Z,8.17
2019-02-22T20:30:19.520Z,7.27
2019-02-22T20:32:49.898Z,7.70
2019-02-22T20:35:21.481Z,7.33
2019-02-22T20:37:53.365Z,7.57
2019-02-22T20:40:25.246Z,7.00
2019-02-22T20:42:55.655Z,7.27
2019-02-22T20:45:26.097Z,7.13
2019-02-22T20:48:04.550Z,6.97
2019-02-22T20:50:28.410Z,6.77
2019-02-22T20:53:00.511Z,6.70
2019-02-22T20:55:30.847Z,6.20
2019-02-22T20:58:01.137Z,6.73
2019-02-22T21:00:31.682Z,7.50
2019-02-22T21:03:02.100Z,7.77
2019-02-22T21:05:32.512Z,7.03
2019-02-22T21:08:02.788Z,7.73
2019-02-22T21:10:33.097Z,7.90
2019-02-22T21:13:05.094Z,7.03
2019-02-22T21:15:35.397Z,8.00
2019-02-22T21:18:15.850Z,7.80
2019-02-22T21:20:38.029Z,7.80
2019-02-22T21:23:09.693Z,8.30
2019-02-22T21:25:40.155Z,8.30
2019-02-22T21:28:10.506Z,8.57
2019-02-22T21:30:40.788Z,8.80
2019-02-22T21:33:11.114Z,8.80
2019-02-22T21:35:41.453Z,9.17
2019-02-22T21:38:11.801Z,9.50
2019-02-22T21:40:42.214Z,10.07
2019-02-22T21:43:12.514Z,10.43
2019-02-22T21:45:42.832Z,9.17
2019-02-22T21:48:13.259Z,10.07
2019-02-22T21:50:43.616Z,10.30
2019-02-22T21:53:13.937Z,10.23
2019-02-22T21:55:44.218Z,11.03
2019-02-22T21:58:14.594Z,10.87
2019-02-22T22:00:44.896Z,11.40
2019-02-22T22:03:15.250Z,11.73
2019-02-22T22:05:45.564Z,11.47
2019-02-22T22:08:16.186Z,11.77
2019-02-22T22:10:46.680Z,10.90
2019-02-22T22:13:17.005Z,11.10
2019-02-22T22:15:47.393Z,11.67
2019-02-22T22:18:18.692Z,10.63
2019-02-22T22:20:49.047Z,11.27
2019-02-22T22:23:19.420Z,10.90
2019-02-22T22:25:49.711Z,11.87
2019-02-22T22:28:20.072Z,10.93
2019-02-22T22:30:50.366Z,11.00
2019-02-22T22:33:20.757Z,11.03
2019-02-22T22:35:51.147Z,12.40
2019-02-22T22:38:21.442Z,11.00
2019-02-22T22:40:52.139Z,11.60
2019-02-22T22:43:25.774Z,11.67
2019-02-22T22:45:56.089Z,11.57
2019-02-22T22:48:26.951Z,12.27
2019-02-22T22:50:57.447Z,11.60
2019-02-22T22:53:28.139Z,12.40
2019-02-22T22:55:58.429Z,12.10
2019-02-22T22:58:28.856Z,12.30
2019-02-22T23:01:06.607Z,12.07
2019-02-22T23:03:37.842Z,12.60
2019-02-22T23:06:09.363Z,11.67
2019-02-22T23:08:39.748Z,10.97
2019-02-22T23:11:10.101Z,11.30
2019-02-22T23:13:40.461Z,10.70
2019-02-22T23:16:10.908Z,10.83
2019-02-22T23:18:41.314Z,11.33
2019-02-22T23:21:11.549Z,11.27
2019-02-22T23:23:41.952Z,11.10
2019-02-22T23:26:12.268Z,11.33
2019-02-22T23:28:42.692Z,11.13
2019-02-22T23:31:13.015Z,10.57
2019-02-22T23:33:43.422Z,12.27
2019-02-22T23:36:13.681Z,11.43
2019-02-22T23:38:44.063Z,12.23
2019-02-22T23:41:14.337Z,11.93
2019-02-22T23:43:45.734Z,12.30
2019-02-22T23:46:15.986Z,12.37
2019-02-22T23:48:46.225Z,11.80
2019-02-22T23:51:16.560Z,11.80
2019-02-22T23:53:47.007Z,12.57
2019-02-22T23:56:20.098Z,11.53
2019-02-22T23:58:50.415Z,11.47
